createdAt,value
2022-11-24T00:01:32.611Z,92.60
2022-11-24T00:04:02.055Z,92.60
2022-11-24T00:06:30.164Z,92.60
2022-11-24T00:08:57.582Z,92.50
2022-11-24T00:11:27.718Z,92.60
2022-11-24T00:13:54.797Z,92.60
2022-11-24T00:16:24.665Z,92.60
2022-11-24T00:18:53.435Z,92.60
2022-11-24T00:21:21.651Z,92.60
2022-11-24T00:23:49.560Z,92.70
2022-11-24T00:26:25.303Z,92.60
2022-11-24T00:28:53.822Z,92.70
2022-11-24T00:31:25.183Z,92.70
2022-11-24T00:33:55.343Z,92.70
2022-11-24T00:36:27.300Z,92.70
2022-11-24T00:38:59.144Z,92.80
2022-11-24T00:41:27.594Z,92.70
2022-11-24T00:43:55.276Z,92.70
2022-11-24T00:46:23.485Z,92.80
2022-11-24T00:48:50.925Z,92.80
2022-11-24T00:51:19.534Z,92.80
2022-11-24T00:53:48.915Z,92.80
2022-11-24T00:56:16.231Z,92.80
2022-11-24T00:58:43.673Z,93.00
2022-11-24T01:01:16.017Z,93.00
2022-11-24T01:03:43.532Z,93.00
2022-11-24T01:06:16.359Z,93.00
2022-11-24T01:08:43.656Z,93.00
2022-11-24T01:11:21.049Z,93.00
2022-11-24T01:13:50.160Z,92.90
2022-11-24T01:16:20.744Z,92.90
2022-11-24T01:18:48.119Z,92.90
2022-11-24T01:21:16.526Z,92.90
2022-11-24T01:23:43.419Z,92.90
2022-11-24T01:26:13.532Z,92.90
2022-11-24T01:28:47.150Z,92.90
2022-11-24T01:31:15.065Z,92.80
2022-11-24T01:33:42.220Z,92.80
2022-11-24T01:36:09.310Z,92.90
2022-11-24T01:38:36.441Z,92.80
2022-11-24T01:41:04.883Z,92.80
2022-11-24T01:43:32.526Z,92.80
2022-11-24T01:46:32.104Z,92.80
2022-11-24T01:49:18.249Z,92.80
2022-11-24T01:52:04.133Z,92.70
2022-11-24T01:54:36.090Z,92.70
2022-11-24T01:57:26.520Z,92.70
2022-11-24T02:00:02.599Z,92.70
2022-11-24T02:02:45.242Z,92.90
2022-11-24T02:05:24.102Z,92.80
2022-11-24T02:07:52.254Z,92.90
2022-11-24T02:10:21.140Z,92.90
2022-11-24T02:12:50.566Z,92.90
2022-11-24T02:15:18.791Z,92.90
2022-11-24T02:17:45.710Z,93.00
2022-11-24T02:20:13.603Z,93.00
2022-11-24T02:23:01.751Z,93.10
2022-11-24T02:25:56.667Z,93.10
2022-11-24T02:28:26.977Z,93.10
2022-11-24T02:30:55.190Z,93.20
2022-11-24T02:33:22.618Z,93.20
2022-11-24T02:35:49.392Z,93.20
2022-11-24T02:38:16.195Z,93.20
2022-11-24T02:40:47.222Z,93.30
2022-11-24T02:43:20.574Z,93.30
2022-11-24T02:45:47.796Z,93.30
2022-11-24T02:48:18.331Z,93.30
2022-11-24T02:50:45.058Z,93.30
2022-11-24T02:53:14.080Z,93.30
2022-11-24T02:55:40.921Z,93.40
2022-11-24T02:58:07.607Z,93.40
2022-11-24T03:00:36.921Z,93.40
2022-11-24T03:03:04.288Z,93.40
2022-11-24T03:05:31.237Z,93.50
2022-11-24T03:08:00.160Z,93.50
2022-11-24T03:10:26.862Z,93.50
2022-11-24T03:12:55.153Z,93.50
2022-11-24T03:15:23.619Z,93.50
2022-11-24T03:17:54.213Z,93.50
2022-11-24T03:20:23.685Z,93.50
2022-11-24T03:22:53.229Z,93.50
2022-11-24T03:25:20.008Z,93.40
2022-11-24T03:27:47.085Z,93.50
2022-11-24T03:30:14.769Z,93.40
2022-11-24T03:32:44.084Z,93.40
2022-11-24T03:35:11.169Z,93.40
2022-11-24T03:37:38.119Z,93.40
2022-11-24T03:40:07.831Z,93.40
2022-11-24T03:42:37.390Z,93.40
2022-11-24T03:45:37.937Z,93.40
2022-11-24T03:47:58.667Z,93.30
2022-11-24T03:50:26.267Z,93.30
2022-11-24T03:52:53.076Z,93.20
2022-11-24T03:55:20.001Z,93.20
2022-11-24T03:57:47.479Z,93.20
2022-11-24T04:00:17.417Z,93.20
2022-11-24T04:02:44.344Z,93.20
2022-11-24T04:05:13.898Z,93.10
2022-11-24T04:07:40.883Z,93.10
2022-11-24T04:10:08.191Z,93.10
2022-11-24T04:12:44.160Z,93.10
2022-11-24T04:15:19.052Z,93.20
2022-11-24T04:17:47.009Z,93.20
2022-11-24T04:20:16.574Z,93.20
2022-11-24T04:22:50.611Z,93.20
2022-11-24T04:25:17.746Z,93.20
2022-11-24T04:27:44.417Z,93.20
2022-11-24T04:30:11.332Z,93.20
2022-11-24T04:32:38.120Z,93.20
2022-11-24T04:35:07.597Z,93.30
2022-11-24T04:37:35.048Z,93.30
2022-11-24T04:40:05.204Z,93.30
2022-11-24T04:42:32.193Z,93.30
2022-11-24T04:45:01.063Z,93.20
2022-11-24T04:47:28.479Z,93.20
2022-11-24T04:49:55.368Z,93.20
2022-11-24T04:52:23.762Z,93.20
2022-11-24T04:54:50.710Z,93.30
2022-11-24T04:57:25.346Z,93.20
2022-11-24T04:59:52.676Z,93.20
2022-11-24T05:02:20.363Z,93.20
2022-11-24T05:04:47.992Z,93.20
2022-11-24T05:07:18.874Z,93.20
2022-11-24T05:10:06.113Z,93.20
2022-11-24T05:12:33.174Z,93.20
2022-11-24T05:15:09.275Z,93.20
2022-11-24T05:17:38.029Z,93.50
2022-11-24T05:20:06.454Z,93.30
2022-11-24T05:22:33.654Z,93.30
2022-11-24T05:25:04.197Z,93.30
2022-11-24T05:27:31.463Z,93.30
2022-11-24T05:29:58.834Z,93.30
2022-11-24T05:32:27.557Z,93.40
2022-11-24T05:34:54.892Z,93.40
2022-11-24T05:37:21.862Z,93.40
2022-11-24T05:39:48.728Z,93.50
2022-11-24T05:42:36.951Z,93.50
2022-11-24T05:45:15.161Z,93.50
2022-11-24T05:47:45.332Z,93.60
2022-11-24T05:50:15.116Z,93.60
2022-11-24T05:52:42.087Z,93.60
2022-11-24T05:55:10.642Z,93.60
2022-11-24T05:57:38.153Z,93.60
2022-11-24T06:00:10.517Z,93.60
2022-11-24T06:02:40.359Z,93.70
2022-11-24T06:05:07.623Z,93.70
2022-11-24T06:07:34.705Z,93.70
2022-11-24T06:10:03.753Z,93.60
2022-11-24T06:12:33.078Z,93.70
2022-11-24T06:14:59.895Z,93.70
2022-11-24T06:17:29.186Z,93.70
2022-11-24T06:19:56.932Z,93.70
2022-11-24T06:22:23.789Z,93.70
2022-11-24T06:24:51.132Z,93.70
2022-11-24T06:27:19.039Z,93.80
2022-11-24T06:29:46.424Z,93.80
2022-11-24T06:32:15.640Z,93.80
2022-11-24T06:34:43.220Z,93.80
2022-11-24T06:37:11.314Z,93.80
2022-11-24T06:39:40.567Z,93.80
2022-11-24T06:42:08.874Z,93.80
2022-11-24T06:44:36.069Z,93.80
2022-11-24T06:47:03.246Z,93.80
2022-11-24T06:49:30.111Z,93.80
2022-11-24T06:51:56.997Z,93.80
2022-11-24T06:54:23.797Z,93.80
2022-11-24T06:56:56.808Z,93.80
2022-11-24T06:59:23.929Z,93.80
2022-11-24T07:01:51.010Z,93.80
2022-11-24T07:04:19.077Z,93.80
2022-11-24T07:06:46.298Z,93.80
2022-11-24T07:09:14.255Z,93.80
2022-11-24T07:11:42.779Z,93.80
2022-11-24T07:14:10.261Z,93.80
2022-11-24T07:16:39.665Z,93.80
2022-11-24T07:19:06.509Z,93.80
2022-11-24T07:21:33.483Z,93.80
2022-11-24T07:24:00.426Z,93.80
2022-11-24T07:26:27.763Z,93.80
2022-11-24T07:28:57.138Z,93.80
2022-11-24T07:31:27.101Z,93.80
2022-11-24T07:33:56.407Z,93.90
2022-11-24T07:36:23.656Z,93.90
2022-11-24T07:38:50.821Z,93.90
2022-11-24T07:41:22.053Z,93.90
2022-11-24T07:43:49.415Z,93.90
2022-11-24T07:46:19.117Z,93.90
2022-11-24T07:48:48.707Z,93.90
2022-11-24T07:51:16.031Z,93.90
2022-11-24T07:53:43.035Z,93.90
2022-11-24T07:56:10.316Z,93.90
2022-11-24T07:58:37.690Z,93.90
2022-11-24T08:01:13.668Z,93.90
2022-11-24T08:03:41.862Z,93.90
2022-11-24T08:06:30.546Z,93.90
2022-11-24T08:08:59.477Z,93.90
2022-11-24T08:11:27.422Z,93.90
2022-11-24T08:13:56.738Z,93.90
2022-11-24T08:16:23.978Z,94.00
2022-11-24T08:18:53.740Z,93.90
2022-11-24T08:21:21.119Z,94.00
2022-11-24T08:23:50.380Z,94.00
2022-11-24T08:26:19.965Z,94.00
2022-11-24T08:28:47.462Z,94.00
2022-11-24T08:31:22.182Z,94.00
2022-11-24T08:33:49.104Z,94.00
2022-11-24T08:36:20.024Z,94.00
2022-11-24T08:38:48.809Z,94.00
2022-11-24T08:41:19.084Z,94.00
2022-11-24T08:43:45.953Z,94.10
2022-11-24T08:46:17.183Z,94.10
2022-11-24T08:48:54.283Z,94.10
2022-11-24T08:51:24.358Z,94.10
2022-11-24T08:53:58.880Z,94.10
2022-11-24T08:56:30.215Z,94.10
2022-11-24T08:58:58.101Z,94.10
2022-11-24T09:01:28.778Z,94.10
2022-11-24T09:03:57.378Z,94.10
2022-11-24T09:06:27.667Z,94.20
2022-11-24T09:08:56.526Z,94.30
2022-11-24T09:11:25.623Z,94.30
2022-11-24T09:13:55.471Z,94.50
2022-11-24T09:16:26.207Z,94.60
2022-11-24T09:19:15.945Z,94.60
2022-11-24T09:21:45.440Z,94.70
2022-11-24T09:27:00.657Z,94.30
2022-11-24T09:29:28.121Z,94.20
2022-11-24T09:31:55.298Z,94.30
2022-11-24T09:34:22.507Z,94.50
2022-11-24T09:36:51.593Z,94.60
2022-11-24T09:39:18.580Z,94.30
2022-11-24T09:44:48.407Z,92.80
2022-11-24T09:47:46.651Z,92.60
2022-11-24T09:50:18.399Z,92.50
2022-11-24T09:52:54.826Z,92.40
2022-11-24T09:55:24.818Z,92.60
2022-11-24T09:58:06.543Z,92.50
2022-11-24T10:00:34.292Z,93.30
2022-11-24T10:03:07.763Z,93.10
2022-11-24T10:05:37.408Z,93.10
2022-11-24T10:08:27.207Z,92.70
2022-11-24T10:11:00.325Z,92.60
2022-11-24T10:13:54.432Z,92.60
2022-11-24T10:16:33.345Z,92.70
2022-11-24T10:19:36.441Z,92.70
2022-11-24T10:22:28.444Z,92.60
2022-11-24T10:25:16.907Z,92.70
2022-11-24T10:27:59.986Z,92.70
2022-11-24T10:30:27.237Z,92.70
2022-11-24T10:33:03.370Z,92.80
2022-11-24T10:35:45.889Z,92.40
2022-11-24T10:38:21.657Z,92.50
2022-11-24T10:40:58.029Z,92.50
2022-11-24T10:43:30.309Z,92.90
2022-11-24T10:46:15.554Z,92.60
2022-11-24T10:48:53.651Z,92.40
2022-11-24T10:51:41.172Z,92.20
2022-11-24T10:54:18.539Z,92.00
2022-11-24T10:56:46.625Z,91.80
2022-11-24T10:59:29.672Z,92.00
2022-11-24T11:01:58.849Z,92.30
2022-11-24T11:04:29.228Z,92.30
2022-11-24T11:07:28.651Z,92.10
2022-11-24T11:10:33.316Z,91.70
2022-11-24T11:13:20.060Z,91.80
2022-11-24T11:15:46.981Z,91.70
2022-11-24T11:18:18.652Z,91.60
2022-11-24T11:20:57.618Z,91.60
2022-11-24T11:23:29.867Z,91.80
2022-11-24T11:26:24.390Z,92.00
2022-11-24T11:35:07.515Z,83.80
2022-11-24T11:37:34.586Z,77.70
2022-11-24T11:40:02.444Z,75.60
2022-11-24T11:43:01.262Z,80.40
2022-11-24T11:45:50.440Z,71.20
2022-11-24T11:48:33.725Z,66.90
2022-11-24T11:51:26.580Z,69.70
2022-11-24T11:54:15.074Z,69.20
2022-11-24T11:56:45.880Z,64.70
2022-11-24T11:59:41.208Z,64.50
2022-11-24T12:02:30.011Z,66.60
2022-11-24T12:04:58.692Z,65.00
2022-11-24T12:07:46.537Z,64.40
2022-11-24T12:10:26.839Z,64.30
2022-11-24T12:13:15.587Z,65.80
2022-11-24T12:15:52.418Z,66.50
2022-11-24T12:18:58.514Z,65.40
2022-11-24T12:21:48.931Z,65.00
2022-11-24T12:24:58.176Z,64.70
2022-11-24T12:27:40.107Z,65.30
2022-11-24T12:30:16.261Z,64.00
2022-11-24T12:32:58.323Z,64.70
2022-11-24T12:35:37.460Z,64.30
2022-11-24T12:38:25.562Z,65.00
2022-11-24T12:40:55.245Z,65.00
2022-11-24T12:43:39.866Z,65.70
2022-11-24T12:46:39.453Z,65.00
2022-11-24T12:49:18.776Z,64.80
2022-11-24T12:51:53.508Z,64.80
2022-11-24T12:54:21.674Z,65.70
2022-11-24T12:57:00.467Z,65.70
2022-11-24T12:59:51.813Z,66.10
2022-11-24T13:02:41.983Z,65.10
2022-11-24T13:05:33.633Z,63.90
2022-11-24T13:08:03.888Z,65.60
2022-11-24T13:10:55.683Z,65.00
2022-11-24T13:13:27.985Z,65.30
2022-11-24T13:16:34.594Z,66.80
2022-11-24T13:18:46.880Z,65.10
2022-11-24T13:21:41.474Z,65.00
2022-11-24T13:24:33.764Z,65.70
2022-11-24T13:27:16.545Z,66.90
2022-11-24T13:29:46.076Z,66.70
2022-11-24T13:32:12.964Z,65.50
2022-11-24T13:34:42.984Z,66.60
2022-11-24T13:37:31.327Z,65.40
2022-11-24T13:40:13.007Z,66.30
2022-11-24T13:43:02.799Z,64.50
2022-11-24T13:45:43.126Z,65.70
2022-11-24T13:48:19.715Z,67.30
2022-11-24T13:50:49.738Z,68.10
2022-11-24T13:53:32.186Z,67.40
2022-11-24T13:56:15.006Z,68.60
2022-11-24T13:58:46.492Z,68.30
2022-11-24T14:01:18.938Z,68.90
2022-11-24T14:07:08.341Z,69.70
2022-11-24T14:09:45.911Z,71.40
2022-11-24T14:12:25.253Z,72.20
2022-11-24T14:14:57.014Z,72.10
2022-11-24T14:17:27.544Z,71.80
2022-11-24T14:20:00.589Z,72.70
2022-11-24T14:22:43.265Z,72.80
2022-11-24T14:25:39.940Z,73.50
2022-11-24T14:28:28.259Z,76.30
2022-11-24T14:31:09.964Z,77.10
2022-11-24T14:33:36.832Z,78.10
2022-11-24T14:36:13.631Z,77.80
2022-11-24T14:38:40.948Z,78.20
2022-11-24T14:41:23.086Z,79.10
2022-11-24T14:43:50.153Z,79.50
2022-11-24T14:46:25.372Z,79.70
2022-11-24T14:48:53.749Z,80.00
2022-11-24T14:51:34.103Z,80.40
2022-11-24T14:54:07.058Z,80.30
2022-11-24T14:56:38.583Z,80.80
2022-11-24T14:59:22.570Z,80.40
2022-11-24T15:01:49.560Z,80.50
2022-11-24T15:04:39.344Z,81.50
2022-11-24T15:07:24.797Z,80.70
2022-11-24T15:09:57.796Z,80.90
2022-11-24T15:12:42.350Z,81.70
2022-11-24T15:15:15.574Z,81.90
2022-11-24T15:17:47.503Z,82.50
2022-11-24T15:20:38.321Z,83.20
2022-11-24T15:23:26.668Z,84.20
2022-11-24T15:26:02.600Z,84.60
2022-11-24T15:28:32.908Z,84.90
2022-11-24T15:31:05.372Z,85.30
2022-11-24T15:33:32.926Z,85.50
2022-11-24T15:36:00.243Z,86.20
2022-11-24T15:38:27.738Z,86.60
2022-11-24T15:40:56.304Z,86.80
2022-11-24T15:43:35.072Z,87.70
2022-11-24T15:46:03.970Z,87.50
2022-11-24T15:48:33.821Z,87.70
2022-11-24T15:51:03.223Z,87.80
2022-11-24T15:53:42.784Z,88.30
2022-11-24T15:56:18.530Z,88.80
2022-11-24T15:58:45.442Z,89.00
2022-11-24T16:01:12.993Z,89.10
2022-11-24T16:03:48.775Z,89.40
2022-11-24T16:06:24.122Z,89.80
2022-11-24T16:08:52.456Z,89.90
2022-11-24T16:11:22.444Z,90.00
2022-11-24T16:13:52.825Z,90.20
2022-11-24T16:16:22.066Z,90.30
2022-11-24T16:18:51.370Z,90.30
2022-11-24T16:21:18.458Z,90.20
2022-11-24T16:23:46.756Z,90.10
2022-11-24T16:26:13.470Z,90.00
2022-11-24T16:28:41.188Z,90.10
2022-11-24T16:31:23.213Z,90.10
2022-11-24T16:33:51.260Z,90.10
2022-11-24T16:36:27.788Z,90.00
2022-11-24T16:38:56.338Z,89.90
2022-11-24T16:41:23.653Z,90.00
2022-11-24T16:43:50.406Z,90.10
2022-11-24T16:46:19.039Z,90.20
2022-11-24T16:48:49.588Z,90.30
2022-11-24T16:51:20.560Z,90.40
2022-11-24T16:53:47.825Z,90.50
2022-11-24T16:56:16.307Z,90.50
2022-11-24T16:58:43.181Z,90.50
2022-11-24T17:01:12.965Z,90.60
2022-11-24T17:03:40.880Z,90.60
2022-11-24T17:06:15.629Z,90.70
2022-11-24T17:08:43.845Z,90.60
2022-11-24T17:11:18.957Z,90.60
2022-11-24T17:13:47.163Z,90.60
2022-11-24T17:16:16.012Z,90.80
2022-11-24T17:18:44.441Z,90.80
2022-11-24T17:21:25.563Z,90.80
2022-11-24T17:23:57.197Z,90.80
2022-11-24T17:26:25.288Z,90.80
2022-11-24T17:28:52.739Z,90.70
2022-11-24T17:31:43.767Z,90.70
2022-11-24T17:34:19.047Z,90.70
2022-11-24T17:36:46.314Z,90.60
2022-11-24T17:39:19.134Z,90.60
2022-11-24T17:41:50.911Z,90.60
2022-11-24T17:44:17.647Z,90.40
2022-11-24T17:46:44.931Z,90.50
2022-11-24T17:49:14.587Z,90.50
2022-11-24T17:51:41.545Z,90.60
2022-11-24T17:54:44.764Z,90.70
2022-11-24T17:56:58.133Z,90.80
2022-11-24T17:59:25.200Z,90.90
2022-11-24T18:01:52.320Z,91.10
2022-11-24T18:04:19.582Z,90.90
2022-11-24T18:06:48.494Z,90.90
2022-11-24T18:09:15.205Z,90.80
2022-11-24T18:11:43.407Z,90.90
2022-11-24T18:14:10.356Z,90.80
2022-11-24T18:16:37.371Z,90.90
2022-11-24T18:19:09.793Z,90.90
2022-11-24T18:21:40.927Z,91.00
2022-11-24T18:24:12.111Z,90.90
2022-11-24T18:26:40.868Z,91.00
2022-11-24T18:29:07.948Z,91.20
2022-11-24T18:31:36.046Z,91.00
2022-11-24T18:34:05.131Z,91.00
2022-11-24T18:36:35.252Z,91.00
2022-11-24T18:39:04.643Z,91.00
2022-11-24T18:41:31.832Z,91.10
2022-11-24T18:44:08.042Z,91.10
2022-11-24T18:46:37.629Z,91.30
2022-11-24T18:49:05.328Z,91.00
2022-11-24T18:51:32.141Z,91.00
2022-11-24T18:53:59.253Z,91.00
2022-11-24T18:56:31.484Z,91.00
2022-11-24T18:58:58.320Z,90.90
2022-11-24T19:01:27.342Z,91.00
2022-11-24T19:03:57.409Z,91.00
2022-11-24T19:06:33.622Z,90.90
2022-11-24T19:09:11.247Z,91.00
2022-11-24T19:11:41.935Z,91.00
2022-11-24T19:14:13.021Z,90.90
2022-11-24T19:16:40.892Z,91.00
2022-11-24T19:19:08.990Z,91.00
2022-11-24T19:21:39.558Z,91.00
2022-11-24T19:24:10.488Z,91.20
2022-11-24T19:26:41.077Z,91.20
2022-11-24T19:29:08.396Z,91.10
2022-11-24T19:31:35.491Z,91.10
2022-11-24T19:34:03.499Z,91.10
2022-11-24T19:36:32.856Z,91.20
2022-11-24T19:39:05.107Z,91.20
2022-11-24T19:41:33.136Z,91.30
2022-11-24T19:44:00.197Z,91.30
2022-11-24T19:46:29.845Z,91.30
2022-11-24T19:49:01.021Z,91.30
2022-11-24T19:51:33.105Z,91.30
2022-11-24T19:54:00.631Z,91.30
2022-11-24T19:56:29.858Z,91.30
2022-11-24T19:58:57.624Z,91.50
2022-11-24T20:01:27.605Z,91.50
2022-11-24T20:04:06.561Z,91.50
2022-11-24T20:06:36.995Z,91.40
2022-11-24T20:09:06.281Z,91.40
2022-11-24T20:11:38.620Z,91.40
2022-11-24T20:14:07.100Z,91.40
2022-11-24T20:16:34.673Z,91.40
2022-11-24T20:19:08.165Z,91.40
2022-11-24T20:21:36.720Z,91.40
2022-11-24T20:24:05.698Z,91.50
2022-11-24T20:26:36.562Z,91.50
2022-11-24T20:29:06.392Z,91.50
2022-11-24T20:31:39.963Z,91.50
2022-11-24T20:34:08.405Z,91.50
2022-11-24T20:36:36.996Z,91.40
2022-11-24T20:39:07.932Z,91.40
2022-11-24T20:41:37.934Z,91.40
2022-11-24T20:44:10.634Z,91.40
2022-11-24T20:46:39.099Z,91.40
2022-11-24T20:49:12.986Z,91.40
2022-11-24T20:51:44.199Z,91.40
2022-11-24T20:54:14.998Z,91.30
2022-11-24T20:56:43.626Z,91.30
2022-11-24T20:59:17.769Z,91.30
2022-11-24T21:01:46.658Z,91.30
2022-11-24T21:04:20.407Z,91.30
2022-11-24T21:06:47.794Z,91.30
2022-11-24T21:09:15.662Z,91.30
2022-11-24T21:11:43.128Z,91.30
2022-11-24T21:14:12.984Z,91.30
2022-11-24T21:16:41.393Z,91.30
2022-11-24T21:19:12.194Z,91.30
2022-11-24T21:21:42.699Z,91.30
2022-11-24T21:24:13.200Z,91.30
2022-11-24T21:26:41.156Z,91.30
2022-11-24T21:29:11.105Z,91.20
2022-11-24T21:31:38.990Z,91.20
2022-11-24T21:34:08.636Z,91.20
2022-11-24T21:36:44.470Z,91.20
2022-11-24T21:39:14.502Z,91.20
2022-11-24T21:41:43.926Z,91.30
2022-11-24T21:44:12.915Z,91.30
2022-11-24T21:46:44.936Z,91.30
2022-11-24T21:49:16.607Z,91.30
2022-11-24T21:51:43.711Z,91.30
2022-11-24T21:54:12.794Z,91.20
2022-11-24T21:56:41.847Z,91.30
2022-11-24T21:59:09.128Z,91.20
2022-11-24T22:01:35.998Z,91.30
2022-11-24T22:04:03.185Z,91.30
2022-11-24T22:06:30.304Z,91.30
2022-11-24T22:08:57.303Z,91.20
2022-11-24T22:11:25.431Z,91.20
2022-11-24T22:13:52.798Z,91.20
2022-11-24T22:16:24.076Z,91.10
2022-11-24T22:18:51.502Z,91.20
2022-11-24T22:21:24.045Z,91.20
2022-11-24T22:23:52.422Z,91.30
2022-11-24T22:26:21.158Z,91.30
2022-11-24T22:28:49.625Z,91.20
2022-11-24T22:31:21.517Z,91.20
2022-11-24T22:33:49.893Z,91.10
2022-11-24T22:36:18.694Z,91.10
2022-11-24T22:38:45.737Z,91.10
2022-11-24T22:41:15.371Z,91.10
2022-11-24T22:43:43.544Z,91.10
2022-11-24T22:46:12.932Z,91.10
2022-11-24T22:48:41.100Z,91.10
2022-11-24T22:51:16.575Z,91.10
2022-11-24T22:53:55.320Z,91.00
2022-11-24T22:56:23.455Z,91.00
2022-11-24T22:58:51.212Z,91.00
2022-11-24T23:01:18.419Z,91.00
2022-11-24T23:03:49.746Z,91.00
2022-11-24T23:06:20.416Z,91.10
2022-11-24T23:08:48.434Z,91.10
2022-11-24T23:11:19.819Z,91.00
2022-11-24T23:13:47.378Z,91.00
2022-11-24T23:16:16.966Z,91.00
2022-11-24T23:18:48.804Z,91.00
2022-11-24T23:21:38.897Z,91.00
2022-11-24T23:24:07.034Z,91.00
2022-11-24T23:26:41.597Z,91.00
2022-11-24T23:29:11.562Z,91.00
2022-11-24T23:31:40.160Z,91.10
2022-11-24T23:34:07.172Z,91.00
2022-11-24T23:36:33.946Z,91.00
2022-11-24T23:39:11.183Z,91.00
2022-11-24T23:41:38.333Z,91.00
2022-11-24T23:44:07.964Z,91.10
2022-11-24T23:46:34.970Z,91.00
2022-11-24T23:49:06.383Z,91.00
2022-11-24T23:51:33.513Z,91.00
2022-11-24T23:54:07.283Z,91.00
2022-11-24T23:56:34.232Z,91.00
2022-11-24T23:59:02.169Z,91.00
